createdAt,value
2023-02-23T00:00:51.057Z,71.92
2023-02-23T00:03:17.456Z,72.11
2023-02-23T00:05:43.798Z,72.21
2023-02-23T00:08:10.143Z,72.66
2023-02-23T00:10:36.467Z,72.54
2023-02-23T00:13:02.807Z,72.64
2023-02-23T00:15:29.146Z,72.45
2023-02-23T00:17:55.533Z,72.25
2023-02-23T00:20:21.856Z,72.48
2023-02-23T00:22:48.585Z,72.63
2023-02-23T00:25:14.933Z,72.90
2023-02-23T00:27:41.317Z,73.14
2023-02-23T00:30:07.642Z,72.88
2023-02-23T00:32:34.194Z,72.87
2023-02-23T00:35:00.397Z,73.02
2023-02-23T00:37:26.733Z,73.34
2023-02-23T00:39:53.146Z,72.93
2023-02-23T00:42:19.507Z,73.20
2023-02-23T00:44:45.851Z,73.09
2023-02-23T00:47:12.267Z,73.35
2023-02-23T00:49:38.621Z,73.10
2023-02-23T00:52:04.993Z,73.12
2023-02-23T00:54:31.381Z,73.27
2023-02-23T00:56:57.769Z,73.55
2023-02-23T00:59:24.109Z,72.93
2023-02-23T01:01:50.495Z,72.98
2023-02-23T01:04:16.865Z,73.00
2023-02-23T01:06:43.314Z,72.48
2023-02-23T01:09:09.644Z,72.87
2023-02-23T01:11:35.968Z,73.13
2023-02-23T01:14:02.377Z,73.45
2023-02-23T01:16:28.759Z,73.75
2023-02-23T01:18:55.072Z,73.92
2023-02-23T01:21:21.470Z,74.11
2023-02-23T01:23:47.815Z,74.26
2023-02-23T01:26:14.235Z,74.80
2023-02-23T01:28:40.598Z,75.27
2023-02-23T01:31:07.042Z,75.23
2023-02-23T01:33:33.351Z,75.31
2023-02-23T01:35:59.695Z,75.63
2023-02-23T01:38:26.024Z,76.13
2023-02-23T01:40:52.402Z,75.82
2023-02-23T01:43:18.717Z,75.83
2023-02-23T01:45:45.103Z,75.90
2023-02-23T01:48:11.469Z,75.78
2023-02-23T01:50:37.800Z,75.88
2023-02-23T01:53:04.180Z,76.00
2023-02-23T01:55:30.556Z,76.09
2023-02-23T01:57:56.906Z,76.14
2023-02-23T02:00:23.240Z,76.46
2023-02-23T02:02:49.606Z,76.21
2023-02-23T02:05:15.967Z,76.13
2023-02-23T02:07:42.288Z,76.33
2023-02-23T02:10:08.667Z,76.50
2023-02-23T02:12:35.073Z,76.79
2023-02-23T02:15:01.455Z,77.21
2023-02-23T02:17:27.778Z,77.15
2023-02-23T02:19:54.138Z,77.50
2023-02-23T02:22:20.462Z,77.46
2023-02-23T02:24:46.917Z,77.63
2023-02-23T02:27:13.221Z,77.64
2023-02-23T02:29:39.548Z,77.64
2023-02-23T02:32:06.045Z,77.87
2023-02-23T02:34:32.299Z,77.99
2023-02-23T02:36:58.631Z,78.01
2023-02-23T02:39:24.969Z,78.23
2023-02-23T02:41:51.330Z,78.19
2023-02-23T02:44:17.713Z,78.10
2023-02-23T02:46:44.035Z,78.32
2023-02-23T02:49:10.442Z,78.51
2023-02-23T02:51:36.801Z,78.71
2023-02-23T02:54:03.193Z,78.98
2023-02-23T02:56:29.546Z,78.86
2023-02-23T02:58:55.883Z,79.06
2023-02-23T03:01:22.236Z,79.58
2023-02-23T03:03:48.618Z,79.95
2023-02-23T03:06:14.951Z,79.94
2023-02-23T03:08:41.331Z,80.11
2023-02-23T03:11:07.676Z,80.31
2023-02-23T03:13:34.115Z,80.49
2023-02-23T03:16:00.485Z,80.83
2023-02-23T03:18:26.901Z,80.85
2023-02-23T03:20:53.266Z,81.17
2023-02-23T03:23:19.641Z,81.12
2023-02-23T03:25:46.012Z,81.10
2023-02-23T03:28:12.407Z,80.80
2023-02-23T03:30:38.756Z,80.81
2023-02-23T03:33:05.072Z,81.05
2023-02-23T03:35:31.449Z,81.37
2023-02-23T03:37:57.828Z,81.79
2023-02-23T03:40:24.201Z,82.20
2023-02-23T03:42:50.589Z,82.42
2023-02-23T03:45:16.892Z,82.70
2023-02-23T03:47:43.309Z,82.55
2023-02-23T03:50:09.666Z,82.63
2023-02-23T03:52:36.006Z,82.53
2023-02-23T03:55:02.380Z,82.37
2023-02-23T03:57:28.764Z,82.39
2023-02-23T03:59:55.072Z,82.44
2023-02-23T04:02:21.423Z,82.40
2023-02-23T04:04:47.744Z,82.07
2023-02-23T04:07:14.128Z,81.87
2023-02-23T04:09:40.478Z,81.81
2023-02-23T04:12:06.865Z,81.92
2023-02-23T04:14:33.240Z,82.21
2023-02-23T04:16:59.582Z,82.28
2023-02-23T04:19:25.947Z,81.88
2023-02-23T04:21:52.338Z,81.74
2023-02-23T04:24:18.662Z,81.71
2023-02-23T04:26:45.049Z,81.99
2023-02-23T04:29:11.417Z,82.42
2023-02-23T04:31:37.814Z,82.66
2023-02-23T04:34:04.081Z,82.57
2023-02-23T04:36:30.457Z,82.51
2023-02-23T04:38:56.801Z,82.49
2023-02-23T04:41:23.159Z,83.00
2023-02-23T04:43:49.522Z,82.96
2023-02-23T04:46:15.925Z,82.63
2023-02-23T04:48:42.215Z,82.52
2023-02-23T04:51:08.628Z,82.47
2023-02-23T04:53:34.926Z,82.00
2023-02-23T04:56:01.320Z,81.51
2023-02-23T04:58:27.634Z,81.63
2023-02-23T05:00:54.020Z,82.04
2023-02-23T05:03:20.344Z,82.23
2023-02-23T05:05:46.801Z,82.56
2023-02-23T05:08:13.201Z,82.91
2023-02-23T05:10:40.422Z,82.98
2023-02-23T05:13:05.897Z,83.02
2023-02-23T05:15:32.327Z,83.25
2023-02-23T05:17:58.637Z,83.63
2023-02-23T05:20:25.007Z,83.84
2023-02-23T05:22:51.644Z,84.64
2023-02-23T05:25:17.983Z,84.75
2023-02-23T05:27:44.311Z,85.05
2023-02-23T05:30:11.225Z,85.60
2023-02-23T05:32:37.601Z,86.08
2023-02-23T05:35:03.869Z,86.04
2023-02-23T05:37:30.250Z,85.75
2023-02-23T05:39:56.647Z,85.83
2023-02-23T05:42:23.011Z,85.51
2023-02-23T05:44:49.362Z,85.33
2023-02-23T05:47:15.854Z,85.32
2023-02-23T05:49:42.223Z,85.61
2023-02-23T05:52:08.636Z,85.29
2023-02-23T05:54:34.983Z,84.64
2023-02-23T05:57:01.907Z,83.75
2023-02-23T05:59:27.707Z,82.87
2023-02-23T06:01:54.067Z,81.97
2023-02-23T06:04:20.461Z,80.98
2023-02-23T06:06:46.824Z,80.17
2023-02-23T06:09:13.200Z,79.44
2023-02-23T06:11:39.774Z,78.36
2023-02-23T06:14:06.163Z,76.76
2023-02-23T06:16:32.598Z,76.03
2023-02-23T06:18:58.924Z,74.57
2023-02-23T06:21:25.256Z,73.84
2023-02-23T06:23:51.638Z,73.42
2023-02-23T06:26:18.249Z,73.56
2023-02-23T06:28:44.556Z,72.30
2023-02-23T06:31:11.385Z,71.43
2023-02-23T06:33:37.632Z,70.41
2023-02-23T06:36:04.040Z,69.05
2023-02-23T06:38:30.324Z,68.72
2023-02-23T06:40:56.985Z,67.34
2023-02-23T06:43:23.561Z,67.70
2023-02-23T06:45:49.715Z,67.05
2023-02-23T06:48:16.111Z,67.08
2023-02-23T06:50:42.497Z,66.77
2023-02-23T06:53:08.828Z,66.07
2023-02-23T06:55:35.179Z,65.46
2023-02-23T06:58:01.505Z,66.08
2023-02-23T07:00:27.899Z,66.59
2023-02-23T07:02:54.253Z,66.95
2023-02-23T07:05:20.643Z,66.51
2023-02-23T07:07:47.132Z,67.01
2023-02-23T07:10:13.514Z,65.45
2023-02-23T07:12:39.836Z,65.28
2023-02-23T07:15:06.305Z,65.78
2023-02-23T07:17:32.678Z,65.02
2023-02-23T07:19:59.066Z,65.75
2023-02-23T07:22:25.427Z,65.06
2023-02-23T07:24:51.949Z,63.15
2023-02-23T07:27:18.326Z,62.81
2023-02-23T07:29:44.649Z,61.74
2023-02-23T07:32:12.280Z,60.97
2023-02-23T07:34:38.473Z,61.23
2023-02-23T07:37:04.861Z,62.45
2023-02-23T07:39:31.334Z,63.28
2023-02-23T07:41:57.646Z,62.74
2023-02-23T07:44:24.063Z,63.22
2023-02-23T07:46:50.783Z,62.82
2023-02-23T07:49:17.124Z,60.51
2023-02-23T07:51:43.468Z,58.63
2023-02-23T07:54:09.958Z,56.98
2023-02-23T07:56:36.274Z,56.79
2023-02-23T07:59:02.638Z,57.37
2023-02-23T08:01:29.072Z,56.46
2023-02-23T08:03:55.421Z,54.13
2023-02-23T08:06:21.734Z,53.42
2023-02-23T08:08:48.145Z,52.94
2023-02-23T08:11:14.506Z,52.16
2023-02-23T08:13:40.863Z,52.15
2023-02-23T08:16:07.245Z,51.65
2023-02-23T08:18:33.676Z,51.53
2023-02-23T08:20:59.980Z,51.32
2023-02-23T08:23:26.329Z,51.52
2023-02-23T08:25:52.657Z,52.05
2023-02-23T08:28:19.042Z,51.79
2023-02-23T08:30:45.515Z,50.01
2023-02-23T08:33:11.802Z,49.50
2023-02-23T08:35:38.140Z,49.45
2023-02-23T08:38:04.549Z,48.86
2023-02-23T08:40:30.928Z,48.54
2023-02-23T08:42:57.306Z,47.18
2023-02-23T08:45:23.658Z,46.51
2023-02-23T08:47:50.086Z,46.01
2023-02-23T08:50:16.391Z,45.98
2023-02-23T08:52:42.744Z,44.35
2023-02-23T08:55:09.134Z,45.14
2023-02-23T08:57:35.495Z,45.38
2023-02-23T09:00:01.858Z,45.96
2023-02-23T09:02:28.230Z,45.43
2023-02-23T09:04:54.584Z,43.65
2023-02-23T09:07:21.220Z,42.83
2023-02-23T09:09:47.548Z,43.23
2023-02-23T09:12:13.973Z,42.63
2023-02-23T09:14:40.465Z,42.38
2023-02-23T09:17:06.867Z,42.20
2023-02-23T09:19:33.211Z,40.31
2023-02-23T09:21:59.617Z,41.46
2023-02-23T09:24:27.022Z,41.83
2023-02-23T09:26:53.368Z,41.58
2023-02-23T09:29:19.746Z,41.10
2023-02-23T09:31:46.166Z,39.48
2023-02-23T09:34:12.456Z,39.82
2023-02-23T09:36:38.846Z,39.39
2023-02-23T09:39:05.244Z,39.23
2023-02-23T09:41:31.625Z,38.70
2023-02-23T09:43:58.077Z,38.95
2023-02-23T09:46:24.501Z,39.43
2023-02-23T09:48:50.800Z,38.68
2023-02-23T09:51:17.668Z,38.54
2023-02-23T09:53:43.919Z,37.76
2023-02-23T09:56:09.943Z,38.51
2023-02-23T09:58:36.267Z,37.41
2023-02-23T10:01:02.659Z,37.37
2023-02-23T10:03:29.068Z,36.79
2023-02-23T10:05:55.428Z,36.45
2023-02-23T10:08:22.048Z,36.43
2023-02-23T10:10:48.446Z,37.12
2023-02-23T10:13:14.816Z,36.78
2023-02-23T10:15:41.233Z,37.43
2023-02-23T10:18:07.478Z,37.06
2023-02-23T10:20:33.901Z,37.81
2023-02-23T10:23:00.234Z,38.67
2023-02-23T10:25:26.635Z,38.69
2023-02-23T10:27:52.951Z,38.19
2023-02-23T10:30:19.321Z,37.24
2023-02-23T10:32:45.722Z,36.96
2023-02-23T10:35:12.087Z,36.94
2023-02-23T10:37:38.442Z,37.42
2023-02-23T10:40:04.901Z,37.14
2023-02-23T10:42:31.248Z,37.26
2023-02-23T10:44:57.611Z,36.98
2023-02-23T10:47:24.306Z,36.55
2023-02-23T10:49:50.593Z,37.44
2023-02-23T10:52:16.920Z,38.46
2023-02-23T10:54:43.281Z,37.64
2023-02-23T10:57:09.663Z,36.65
2023-02-23T10:59:36.146Z,35.84
2023-02-23T11:02:03.050Z,35.59
2023-02-23T11:04:29.336Z,35.36
2023-02-23T11:06:55.612Z,34.68
2023-02-23T11:09:24.862Z,34.47
2023-02-23T11:11:48.380Z,33.89
2023-02-23T11:14:14.725Z,33.66
2023-02-23T11:16:41.153Z,32.97
2023-02-23T11:19:07.457Z,33.22
2023-02-23T11:21:34.245Z,33.72
2023-02-23T11:24:00.575Z,34.09
2023-02-23T11:26:26.950Z,34.36
2023-02-23T11:28:53.309Z,34.31
2023-02-23T11:31:19.997Z,34.03
2023-02-23T11:33:45.995Z,33.58
2023-02-23T11:36:12.434Z,33.62
2023-02-23T11:38:38.819Z,34.10
2023-02-23T11:41:05.149Z,33.88
2023-02-23T11:43:31.520Z,33.97
2023-02-23T11:45:57.889Z,34.22
2023-02-23T11:48:24.315Z,34.53
2023-02-23T11:50:50.643Z,33.58
2023-02-23T11:53:17.051Z,33.93
2023-02-23T11:55:43.454Z,33.68
2023-02-23T11:58:09.886Z,33.78
2023-02-23T12:00:36.198Z,33.41
2023-02-23T12:03:02.639Z,33.06
2023-02-23T12:05:28.937Z,33.83
2023-02-23T12:07:55.293Z,33.78
2023-02-23T12:10:21.761Z,33.92
2023-02-23T12:12:48.111Z,33.74
2023-02-23T12:15:14.437Z,33.35
2023-02-23T12:17:40.836Z,33.82
2023-02-23T12:20:07.166Z,34.27
2023-02-23T12:22:33.551Z,33.52
2023-02-23T12:24:59.878Z,33.13
2023-02-23T12:27:26.289Z,33.55
2023-02-23T12:29:52.622Z,33.92
2023-02-23T12:32:19.334Z,34.67
2023-02-23T12:34:45.546Z,34.81
2023-02-23T12:37:11.901Z,35.39
2023-02-23T12:39:38.314Z,35.41
2023-02-23T12:42:04.672Z,35.73
2023-02-23T12:44:31.085Z,35.70
2023-02-23T12:46:57.543Z,35.86
2023-02-23T12:49:23.857Z,35.99
2023-02-23T12:51:50.250Z,36.01
2023-02-23T12:54:16.709Z,35.48
2023-02-23T12:56:43.162Z,35.59
2023-02-23T12:59:09.517Z,35.41
2023-02-23T13:01:35.958Z,35.23
2023-02-23T13:04:02.271Z,35.33
2023-02-23T13:06:28.655Z,35.26
2023-02-23T13:08:55.020Z,35.73
2023-02-23T13:11:21.556Z,35.74
2023-02-23T13:13:47.852Z,35.60
2023-02-23T13:16:14.511Z,35.38
2023-02-23T13:18:40.869Z,35.64
2023-02-23T13:21:07.255Z,35.64
2023-02-23T13:23:33.688Z,35.74
2023-02-23T13:26:00.086Z,36.03
2023-02-23T13:28:26.386Z,36.09
2023-02-23T13:30:52.825Z,36.46
2023-02-23T13:33:19.065Z,36.21
2023-02-23T13:35:45.506Z,36.29
2023-02-23T13:38:11.827Z,36.36
2023-02-23T13:40:38.246Z,36.81
2023-02-23T13:43:04.587Z,36.88
2023-02-23T13:45:30.949Z,36.93
2023-02-23T13:47:57.432Z,36.84
2023-02-23T13:50:23.821Z,36.93
2023-02-23T13:52:50.250Z,36.96
2023-02-23T13:55:16.610Z,37.14
2023-02-23T13:57:42.939Z,37.28
2023-02-23T14:00:09.421Z,37.23
2023-02-23T14:02:35.830Z,37.27
2023-02-23T14:05:02.093Z,37.30
2023-02-23T14:07:28.412Z,37.11
2023-02-23T14:09:55.092Z,37.19
2023-02-23T14:12:21.428Z,37.15
2023-02-23T14:14:47.772Z,37.77
2023-02-23T14:17:14.164Z,39.93
2023-02-23T14:19:40.630Z,41.40
2023-02-23T14:22:07.044Z,42.06
2023-02-23T14:24:33.447Z,42.54
2023-02-23T14:26:59.851Z,43.21
2023-02-23T14:29:26.229Z,43.84
2023-02-23T14:31:52.742Z,44.36
2023-02-23T14:34:18.917Z,45.12
2023-02-23T14:36:45.316Z,45.60
2023-02-23T14:39:11.745Z,46.04
2023-02-23T14:41:38.167Z,45.95
2023-02-23T14:44:04.607Z,46.15
2023-02-23T14:46:31.052Z,46.46
2023-02-23T14:48:57.370Z,46.54
2023-02-23T14:51:23.726Z,46.82
2023-02-23T14:53:50.167Z,46.87
2023-02-23T14:56:16.571Z,47.35
2023-02-23T14:58:43.297Z,47.64
2023-02-23T15:01:09.640Z,47.88
2023-02-23T15:03:35.971Z,48.43
2023-02-23T15:06:02.422Z,49.05
2023-02-23T15:08:28.735Z,49.47
2023-02-23T15:10:55.131Z,49.88
2023-02-23T15:13:21.524Z,50.06
2023-02-23T15:15:47.841Z,50.33
2023-02-23T15:18:14.244Z,50.81
2023-02-23T15:20:40.607Z,51.65
2023-02-23T15:23:07.030Z,52.13
2023-02-23T15:25:33.357Z,52.57
2023-02-23T15:27:59.727Z,53.08
2023-02-23T15:30:26.029Z,53.22
2023-02-23T15:32:52.578Z,53.80
2023-02-23T15:35:18.783Z,54.05
2023-02-23T15:37:45.146Z,54.62
2023-02-23T15:40:12.006Z,55.15
2023-02-23T15:42:38.393Z,55.50
2023-02-23T15:45:04.719Z,55.98
2023-02-23T15:47:31.064Z,56.04
2023-02-23T15:49:57.512Z,56.84
2023-02-23T15:52:23.887Z,57.25
2023-02-23T15:54:50.404Z,57.47
2023-02-23T15:57:16.838Z,57.84
2023-02-23T15:59:43.155Z,58.15
2023-02-23T16:02:09.541Z,58.31
2023-02-23T16:04:38.361Z,58.87
2023-02-23T16:07:04.871Z,59.33
2023-02-23T16:09:33.585Z,59.39
2023-02-23T16:11:59.912Z,59.90
2023-02-23T16:14:26.235Z,59.57
2023-02-23T16:17:04.918Z,60.40
2023-02-23T16:19:18.987Z,60.74
2023-02-23T16:21:45.409Z,61.33
2023-02-23T16:24:11.846Z,61.66
2023-02-23T16:26:38.182Z,62.16
2023-02-23T16:29:04.585Z,62.62
2023-02-23T16:31:30.998Z,62.72
2023-02-23T16:33:57.328Z,63.25
2023-02-23T16:36:23.960Z,63.71
2023-02-23T16:38:50.844Z,64.19
2023-02-23T16:41:17.464Z,64.13
2023-02-23T16:43:45.134Z,64.72
2023-02-23T16:46:11.487Z,65.19
2023-02-23T16:48:37.909Z,65.25
2023-02-23T16:51:04.255Z,65.63
2023-02-23T16:53:30.613Z,65.87
2023-02-23T16:55:56.930Z,66.34
2023-02-23T16:58:23.388Z,66.87
2023-02-23T17:00:49.698Z,67.13
2023-02-23T17:03:16.097Z,67.41
2023-02-23T17:05:42.838Z,67.93
2023-02-23T17:08:09.170Z,68.51
2023-02-23T17:10:35.596Z,68.82
2023-02-23T17:13:01.945Z,69.61
2023-02-23T17:15:28.433Z,69.65
2023-02-23T17:17:54.790Z,70.66
2023-02-23T17:20:21.176Z,71.32
2023-02-23T17:22:47.586Z,71.68
2023-02-23T17:25:14.028Z,72.02
2023-02-23T17:27:40.421Z,72.43
2023-02-23T17:30:06.752Z,72.78
2023-02-23T17:32:33.299Z,73.00
2023-02-23T17:34:59.627Z,73.49
2023-02-23T17:37:26.007Z,73.68
2023-02-23T17:39:52.390Z,74.12
2023-02-23T17:42:18.792Z,74.57
2023-02-23T17:44:45.151Z,75.04
2023-02-23T17:47:11.551Z,75.41
2023-02-23T17:49:37.919Z,75.51
2023-02-23T17:52:04.298Z,75.84
2023-02-23T17:54:30.897Z,76.39
2023-02-23T17:56:57.273Z,76.97
2023-02-23T17:59:23.636Z,77.30
2023-02-23T18:01:50.326Z,77.56
2023-02-23T18:04:16.599Z,77.71
2023-02-23T18:06:42.946Z,78.12
2023-02-23T18:09:09.375Z,78.61
2023-02-23T18:11:35.687Z,78.97
2023-02-23T18:14:02.021Z,79.44
2023-02-23T18:16:28.640Z,79.61
2023-02-23T18:18:54.898Z,79.95
2023-02-23T18:21:21.350Z,80.24
2023-02-23T18:23:48.017Z,80.59
2023-02-23T18:26:14.448Z,81.16
2023-02-23T18:28:40.845Z,81.21
2023-02-23T18:31:08.430Z,81.37
2023-02-23T18:33:34.764Z,82.04
2023-02-23T18:36:01.124Z,82.14
2023-02-23T18:38:27.786Z,82.53
2023-02-23T18:40:54.170Z,82.66
2023-02-23T18:43:20.530Z,82.95
2023-02-23T18:45:46.921Z,83.45
2023-02-23T18:48:15.458Z,83.63
2023-02-23T18:50:41.835Z,83.71
2023-02-23T18:53:08.181Z,83.64
2023-02-23T18:55:34.569Z,83.75
2023-02-23T18:58:00.924Z,84.15
2023-02-23T19:00:27.488Z,84.58
2023-02-23T19:02:53.716Z,84.77
2023-02-23T19:05:22.046Z,85.34
2023-02-23T19:07:46.521Z,85.51
2023-02-23T19:10:12.896Z,85.58
2023-02-23T19:12:39.332Z,85.80
2023-02-23T19:15:05.926Z,86.27
2023-02-23T19:17:32.295Z,85.99
2023-02-23T19:19:58.673Z,86.18
2023-02-23T19:22:25.002Z,86.89
2023-02-23T19:24:51.353Z,87.14
2023-02-23T19:27:17.758Z,87.26
2023-02-23T19:29:44.109Z,87.99
2023-02-23T19:32:10.617Z,88.06
2023-02-23T19:34:37.055Z,88.14
2023-02-23T19:37:03.489Z,88.30
2023-02-23T19:39:29.845Z,88.45
2023-02-23T19:41:56.253Z,88.79
2023-02-23T19:44:22.595Z,88.74
2023-02-23T19:46:49.155Z,88.67
2023-02-23T19:49:15.520Z,89.38
2023-02-23T19:51:42.373Z,89.58
2023-02-23T19:54:08.999Z,89.96
2023-02-23T19:56:35.350Z,89.67
2023-02-23T19:59:01.688Z,90.04
2023-02-23T20:01:28.846Z,90.01
2023-02-23T20:03:55.247Z,90.67
2023-02-23T20:06:21.868Z,90.87
2023-02-23T20:08:48.263Z,90.86
2023-02-23T20:11:14.713Z,90.99
2023-02-23T20:13:41.160Z,91.34
2023-02-23T20:16:07.648Z,91.27
2023-02-23T20:18:34.086Z,91.27
2023-02-23T20:21:00.452Z,91.16
2023-02-23T20:23:27.163Z,91.40
2023-02-23T20:25:53.468Z,91.38
2023-02-23T20:28:19.898Z,91.70
2023-02-23T20:30:46.325Z,91.70
2023-02-23T20:33:12.655Z,91.82
2023-02-23T20:35:39.089Z,92.40
2023-02-23T20:38:05.436Z,92.59
2023-02-23T20:40:31.796Z,92.59
2023-02-23T20:42:58.256Z,92.58
2023-02-23T20:45:24.901Z,93.00
2023-02-23T20:47:51.260Z,93.28
2023-02-23T20:50:17.622Z,93.70
2023-02-23T20:52:43.969Z,94.07
2023-02-23T20:55:10.333Z,94.30
2023-02-23T20:57:36.730Z,94.55
2023-02-23T21:00:03.053Z,94.97
2023-02-23T21:02:29.506Z,95.87
2023-02-23T21:04:55.852Z,96.53
2023-02-23T21:07:22.197Z,96.42
2023-02-23T21:09:48.608Z,96.35
2023-02-23T21:12:15.090Z,96.75
2023-02-23T21:14:41.506Z,97.02
2023-02-23T21:17:08.163Z,97.21
2023-02-23T21:19:34.474Z,97.22
2023-02-23T21:22:00.821Z,97.53
2023-02-23T21:30:27.944Z,98.87
2023-02-23T21:32:54.353Z,98.26
2023-02-23T21:35:20.661Z,97.75
2023-02-23T21:37:47.032Z,97.67
2023-02-23T21:40:13.417Z,97.51
2023-02-23T21:42:39.763Z,97.70
2023-02-23T21:45:06.111Z,97.93
2023-02-23T21:47:32.433Z,98.01
2023-02-23T21:49:58.812Z,98.19
2023-02-23T21:52:25.162Z,98.67
2023-02-23T21:54:51.522Z,98.65
2023-02-23T21:57:17.880Z,98.42
2023-02-23T21:59:44.266Z,98.51
2023-02-23T22:02:10.623Z,98.07
2023-02-23T22:04:37.269Z,98.08
2023-02-23T22:07:03.357Z,98.13
2023-02-23T22:09:29.755Z,97.97
2023-02-23T22:11:56.175Z,98.12
2023-02-23T22:14:22.517Z,98.00
2023-02-23T22:16:48.830Z,97.70
2023-02-23T22:19:15.310Z,97.29
2023-02-23T22:21:41.605Z,97.24
2023-02-23T22:24:07.988Z,97.19
2023-02-23T22:26:34.308Z,97.08
2023-02-23T22:29:00.657Z,97.18
2023-02-23T22:31:27.122Z,97.37
2023-02-23T22:33:53.468Z,97.35
2023-02-23T22:36:19.804Z,97.31
2023-02-23T22:38:46.181Z,97.01
2023-02-23T22:41:12.564Z,96.78
2023-02-23T22:43:38.957Z,96.65
2023-02-23T22:46:05.303Z,96.44
2023-02-23T22:48:32.011Z,96.32
2023-02-23T22:50:58.374Z,96.20
2023-02-23T22:53:24.708Z,96.32
2023-02-23T22:55:51.065Z,96.10
2023-02-23T22:58:17.464Z,95.96
2023-02-23T23:00:43.775Z,95.92
2023-02-23T23:03:10.358Z,95.69
2023-02-23T23:05:36.644Z,95.49
2023-02-23T23:08:03.031Z,95.20
2023-02-23T23:10:29.347Z,95.07
2023-02-23T23:12:55.693Z,94.84
2023-02-23T23:15:23.540Z,94.69
2023-02-23T23:17:48.663Z,94.49
2023-02-23T23:20:14.733Z,94.33
2023-02-23T23:22:41.085Z,94.20
2023-02-23T23:25:07.439Z,94.24
2023-02-23T23:27:33.815Z,93.84
2023-02-23T23:30:00.174Z,93.74
2023-02-23T23:32:26.662Z,93.45
2023-02-23T23:34:52.905Z,93.25
2023-02-23T23:37:19.271Z,93.38
2023-02-23T23:39:45.649Z,93.16
2023-02-23T23:42:12.030Z,93.09
2023-02-23T23:44:38.326Z,93.52
2023-02-23T23:47:04.668Z,93.83
2023-02-23T23:49:31.034Z,94.00
2023-02-23T23:51:57.385Z,93.74
2023-02-23T23:54:23.748Z,93.72
2023-02-23T23:56:50.088Z,93.72
2023-02-23T23:59:16.481Z,93.75
